Terminal Aerodrome Forecast
Issued by NWS

Home | Current Version | Previous Version | Text Only | Print | Product List | Glossary On
Versions: 1 2 3 4 5 6 7 8 9 10 11 12 13 14 15 16 17 18 19 20 21 22 23 24 25 26 27
033
FTUS46 KPDT 201740
TAFYKM
TAF
KYKM 201740Z 2018/2118 25008KT 4SM -RA BR OVC015
     FM202000 29005KT P6SM BKN025 OVC035
     FM202100 26005KT 5SM BR VCSH SCT025 OVC040
     FM210200 28009KT P6SM SCT040 BKN150=

USA.gov is the U.S. government's official web portal to all federal, state and local government web resources and services.